sensor_id;sensor_type;location;lat;lon;timestamp;P1;durP1;ratioP1;P2;durP2;ratioP2
82926;SDS011;72788;40.218;44.486;2024-03-23T00:56:14;15.50;;;5.40;;
82926;SDS011;72788;40.218;44.486;2024-03-23T00:58:39;10.07;;;4.38;;
82926;SDS011;72788;40.218;44.486;2024-03-23T01:01:05;10.23;;;4.32;;
82926;SDS011;72788;40.218;44.486;2024-03-23T01:03:31;12.63;;;4.82;;
82926;SDS011;72788;40.218;44.486;2024-03-23T01:06:00;9.65;;;4.85;;
82926;SDS011;72788;40.218;44.486;2024-03-23T01:08:26;13.38;;;4.70;;
82926;SDS011;72788;40.218;44.486;2024-03-23T01:10:58;9.98;;;4.07;;
82926;SDS011;72788;40.218;44.486;2024-03-23T01:13:25;12.85;;;4.70;;
82926;SDS011;72788;40.218;44.486;2024-03-23T01:15:51;9.68;;;4.22;;
82926;SDS011;72788;40.218;44.486;2024-03-23T01:18:18;10.52;;;4.20;;
82926;SDS011;72788;40.218;44.486;2024-03-23T01:20:44;11.63;;;3.88;;
82926;SDS011;72788;40.218;44.486;2024-03-23T01:23:11;8.65;;;4.05;;
82926;SDS011;72788;40.218;44.486;2024-03-23T01:25:37;10.13;;;4.05;;
82926;SDS011;72788;40.218;44.486;2024-03-23T01:28:03;9.57;;;3.90;;
82926;SDS011;72788;40.218;44.486;2024-03-23T01:30:29;8.90;;;4.00;;
82926;SDS011;72788;40.218;44.486;2024-03-23T01:32:55;10.15;;;3.95;;
82926;SDS011;72788;40.218;44.486;2024-03-23T01:35:21;8.95;;;3.67;;
82926;SDS011;72788;40.218;44.486;2024-03-23T01:37:47;8.13;;;3.78;;
82926;SDS011;72788;40.218;44.486;2024-03-23T01:40:12;13.15;;;4.22;;
82926;SDS011;72788;40.218;44.486;2024-03-23T01:42:39;11.00;;;4.35;;
82926;SDS011;72788;40.218;44.486;2024-03-23T01:45:06;9.85;;;3.67;;
82926;SDS011;72788;40.218;44.486;2024-03-23T01:47:33;9.50;;;3.97;;
82926;SDS011;72788;40.218;44.486;2024-03-23T01:49:59;9.93;;;3.85;;
82926;SDS011;72788;40.218;44.486;2024-03-23T01:52:25;11.73;;;4.25;;
82926;SDS011;72788;40.218;44.486;2024-03-23T01:54:52;8.80;;;4.07;;
82926;SDS011;72788;40.218;44.486;2024-03-23T01:57:19;8.05;;;3.42;;
82926;SDS011;72788;40.218;44.486;2024-03-23T01:59:48;8.90;;;3.80;;
82926;SDS011;72788;40.218;44.486;2024-03-23T02:02:14;9.25;;;3.90;;
82926;SDS011;72788;40.218;44.486;2024-03-23T02:04:42;13.27;;;3.90;;
82926;SDS011;72788;40.218;44.486;2024-03-23T02:07:08;9.68;;;3.78;;
82926;SDS011;72788;40.218;44.486;2024-03-23T02:09:34;8.15;;;3.30;;
82926;SDS011;72788;40.218;44.486;2024-03-23T02:12:01;10.25;;;4.00;;
82926;SDS011;72788;40.218;44.486;2024-03-23T02:14:27;8.75;;;3.28;;
82926;SDS011;72788;40.218;44.486;2024-03-23T02:16:53;11.02;;;3.60;;
82926;SDS011;72788;40.218;44.486;2024-03-23T02:19:18;10.35;;;3.60;;
82926;SDS011;72788;40.218;44.486;2024-03-23T02:21:44;8.15;;;3.55;;
82926;SDS011;72788;40.218;44.486;2024-03-23T02:24:12;8.30;;;3.25;;
82926;SDS011;72788;40.218;44.486;2024-03-23T02:26:37;9.02;;;3.60;;
82926;SDS011;72788;40.218;44.486;2024-03-23T02:29:03;9.40;;;3.42;;
82926;SDS011;72788;40.218;44.486;2024-03-23T02:31:29;9.90;;;3.70;;
82926;SDS011;72788;40.218;44.486;2024-03-23T02:33:55;8.20;;;3.20;;
82926;SDS011;72788;40.218;44.486;2024-03-23T02:36:23;10.02;;;3.85;;
82926;SDS011;72788;40.218;44.486;2024-03-23T02:38:49;9.90;;;3.72;;
82926;SDS011;72788;40.218;44.486;2024-03-23T02:41:14;10.20;;;3.85;;
82926;SDS011;72788;40.218;44.486;2024-03-23T02:43:50;11.05;;;3.75;;
82926;SDS011;72788;40.218;44.486;2024-03-23T02:46:16;11.85;;;3.75;;
82926;SDS011;72788;40.218;44.486;2024-03-23T02:48:42;9.15;;;3.83;;
82926;SDS011;72788;40.218;44.486;2024-03-23T02:51:08;9.30;;;3.60;;
82926;SDS011;72788;40.218;44.486;2024-03-23T02:53:34;9.48;;;3.85;;
82926;SDS011;72788;40.218;44.486;2024-03-23T02:56:00;8.55;;;3.70;;
82926;SDS011;72788;40.218;44.486;2024-03-23T02:58:26;8.43;;;3.88;;
82926;SDS011;72788;40.218;44.486;2024-03-23T03:00:51;9.25;;;4.00;;
82926;SDS011;72788;40.218;44.486;2024-03-23T03:03:17;10.30;;;3.80;;
82926;SDS011;72788;40.218;44.486;2024-03-23T03:05:43;11.13;;;4.30;;
82926;SDS011;72788;40.218;44.486;2024-03-23T03:08:09;10.45;;;4.03;;
82926;SDS011;72788;40.218;44.486;2024-03-23T03:10:34;8.88;;;3.95;;
82926;SDS011;72788;40.218;44.486;2024-03-23T03:13:01;11.70;;;4.28;;
82926;SDS011;72788;40.218;44.486;2024-03-23T03:15:27;10.15;;;4.00;;
82926;SDS011;72788;40.218;44.486;2024-03-23T03:17:53;10.63;;;3.58;;
82926;SDS011;72788;40.218;44.486;2024-03-23T03:20:19;10.00;;;3.78;;
82926;SDS011;72788;40.218;44.486;2024-03-23T03:22:47;7.60;;;2.90;;
82926;SDS011;72788;40.218;44.486;2024-03-23T03:25:12;8.20;;;3.28;;
82926;SDS011;72788;40.218;44.486;2024-03-23T03:27:38;7.93;;;2.92;;
82926;SDS011;72788;40.218;44.486;2024-03-23T03:30:04;7.75;;;2.97;;
82926;SDS011;72788;40.218;44.486;2024-03-23T03:32:32;7.40;;;2.67;;
82926;SDS011;72788;40.218;44.486;2024-03-23T03:34:58;8.15;;;3.35;;
82926;SDS011;72788;40.218;44.486;2024-03-23T03:37:24;8.45;;;3.20;;
82926;SDS011;72788;40.218;44.486;2024-03-23T03:39:49;8.27;;;3.22;;
82926;SDS011;72788;40.218;44.486;2024-03-23T03:42:15;10.50;;;2.97;;
82926;SDS011;72788;40.218;44.486;2024-03-23T03:44:41;8.70;;;3.17;;
82926;SDS011;72788;40.218;44.486;2024-03-23T03:47:07;7.93;;;3.40;;
82926;SDS011;72788;40.218;44.486;2024-03-23T03:49:32;8.90;;;3.05;;
82926;SDS011;72788;40.218;44.486;2024-03-23T03:51:58;8.35;;;3.55;;
82926;SDS011;72788;40.218;44.486;2024-03-23T03:54:26;9.48;;;3.60;;
82926;SDS011;72788;40.218;44.486;2024-03-23T03:56:52;7.95;;;3.67;;
82926;SDS011;72788;40.218;44.486;2024-03-23T03:59:18;9.50;;;3.38;;
82926;SDS011;72788;40.218;44.486;2024-03-23T04:01:44;8.30;;;3.20;;
82926;SDS011;72788;40.218;44.486;2024-03-23T04:04:10;10.10;;;3.47;;
82926;SDS011;72788;40.218;44.486;2024-03-23T04:06:36;8.07;;;3.15;;
82926;SDS011;72788;40.218;44.486;2024-03-23T04:09:02;9.90;;;3.80;;
82926;SDS011;72788;40.218;44.486;2024-03-23T04:11:28;9.23;;;4.43;;
82926;SDS011;72788;40.218;44.486;2024-03-23T04:13:53;10.45;;;4.07;;
82926;SDS011;72788;40.218;44.486;2024-03-23T04:16:29;10.88;;;4.05;;
82926;SDS011;72788;40.218;44.486;2024-03-23T04:18:55;7.22;;;3.42;;
82926;SDS011;72788;40.218;44.486;2024-03-23T04:21:24;9.45;;;3.60;;
82926;SDS011;72788;40.218;44.486;2024-03-23T04:23:49;9.18;;;4.38;;
82926;SDS011;72788;40.218;44.486;2024-03-23T04:26:15;11.13;;;4.40;;
82926;SDS011;72788;40.218;44.486;2024-03-23T04:28:41;12.00;;;4.40;;
82926;SDS011;72788;40.218;44.486;2024-03-23T04:31:08;11.55;;;4.35;;
82926;SDS011;72788;40.218;44.486;2024-03-23T04:33:34;9.70;;;3.78;;
82926;SDS011;72788;40.218;44.486;2024-03-23T04:36:00;10.85;;;4.13;;
82926;SDS011;72788;40.218;44.486;2024-03-23T04:38:25;12.80;;;5.38;;
82926;SDS011;72788;40.218;44.486;2024-03-23T04:41:05;11.02;;;4.25;;
82926;SDS011;72788;40.218;44.486;2024-03-23T04:43:30;13.98;;;4.75;;
82926;SDS011;72788;40.218;44.486;2024-03-23T04:45:56;10.98;;;4.07;;
82926;SDS011;72788;40.218;44.486;2024-03-23T04:48:22;11.02;;;4.05;;
82926;SDS011;72788;40.218;44.486;2024-03-23T04:50:48;11.15;;;4.03;;
82926;SDS011;72788;40.218;44.486;2024-03-23T04:53:14;10.57;;;3.72;;
82926;SDS011;72788;40.218;44.486;2024-03-23T04:55:43;11.82;;;4.18;;
82926;SDS011;72788;40.218;44.486;2024-03-23T04:58:09;10.98;;;4.28;;
82926;SDS011;72788;40.218;44.486;2024-03-23T05:00:34;10.13;;;4.28;;
82926;SDS011;72788;40.218;44.486;2024-03-23T05:03:00;7.88;;;3.88;;
82926;SDS011;72788;40.218;44.486;2024-03-23T05:05:26;9.15;;;4.15;;
82926;SDS011;72788;40.218;44.486;2024-03-23T05:08:01;9.68;;;4.10;;
82926;SDS011;72788;40.218;44.486;2024-03-23T05:10:26;8.18;;;3.70;;
82926;SDS011;72788;40.218;44.486;2024-03-23T05:13:00;10.25;;;4.10;;
82926;SDS011;72788;40.218;44.486;2024-03-23T05:15:26;13.00;;;4.93;;
82926;SDS011;72788;40.218;44.486;2024-03-23T05:17:52;11.48;;;4.97;;
82926;SDS011;72788;40.218;44.486;2024-03-23T05:20:19;11.07;;;4.85;;
82926;SDS011;72788;40.218;44.486;2024-03-23T05:22:45;8.60;;;3.90;;
82926;SDS011;72788;40.218;44.486;2024-03-23T05:25:10;11.27;;;5.78;;
82926;SDS011;72788;40.218;44.486;2024-03-23T05:27:36;11.15;;;5.20;;
82926;SDS011;72788;40.218;44.486;2024-03-23T05:30:02;12.18;;;4.78;;
82926;SDS011;72788;40.218;44.486;2024-03-23T05:32:29;15.73;;;4.85;;
82926;SDS011;72788;40.218;44.486;2024-03-23T05:34:54;44.38;;;8.30;;
82926;SDS011;72788;40.218;44.486;2024-03-23T05:37:23;9.93;;;4.50;;
82926;SDS011;72788;40.218;44.486;2024-03-23T05:39:49;10.82;;;4.00;;
82926;SDS011;72788;40.218;44.486;2024-03-23T05:42:15;10.50;;;4.30;;
82926;SDS011;72788;40.218;44.486;2024-03-23T05:44:44;16.77;;;4.43;;
82926;SDS011;72788;40.218;44.486;2024-03-23T05:47:10;13.60;;;4.30;;
82926;SDS011;72788;40.218;44.486;2024-03-23T05:49:38;9.70;;;3.67;;
82926;SDS011;72788;40.218;44.486;2024-03-23T05:52:04;26.95;;;5.25;;
82926;SDS011;72788;40.218;44.486;2024-03-23T05:54:29;7.68;;;2.58;;
82926;SDS011;72788;40.218;44.486;2024-03-23T05:56:55;13.98;;;3.42;;
82926;SDS011;72788;40.218;44.486;2024-03-23T05:59:21;6.35;;;2.20;;
82926;SDS011;72788;40.218;44.486;2024-03-23T06:01:47;8.57;;;1.88;;
82926;SDS011;72788;40.218;44.486;2024-03-23T06:04:13;5.93;;;1.70;;
82926;SDS011;72788;40.218;44.486;2024-03-23T06:06:39;5.70;;;1.83;;
82926;SDS011;72788;40.218;44.486;2024-03-23T06:09:05;5.53;;;1.48;;
82926;SDS011;72788;40.218;44.486;2024-03-23T06:11:30;6.45;;;1.73;;
82926;SDS011;72788;40.218;44.486;2024-03-23T06:13:56;6.72;;;2.40;;
82926;SDS011;72788;40.218;44.486;2024-03-23T06:16:22;6.57;;;2.42;;
82926;SDS011;72788;40.218;44.486;2024-03-23T06:18:51;7.47;;;3.30;;
82926;SDS011;72788;40.218;44.486;2024-03-23T06:21:16;7.38;;;2.65;;
82926;SDS011;72788;40.218;44.486;2024-03-23T06:23:44;7.55;;;2.40;;
82926;SDS011;72788;40.218;44.486;2024-03-23T06:26:19;15.13;;;1.90;;
82926;SDS011;72788;40.218;44.486;2024-03-23T06:28:46;5.70;;;1.50;;
82926;SDS011;72788;40.218;44.486;2024-03-23T06:31:14;5.00;;;1.60;;
82926;SDS011;72788;40.218;44.486;2024-03-23T06:33:40;5.70;;;1.40;;
82926;SDS011;72788;40.218;44.486;2024-03-23T06:36:11;6.45;;;1.90;;
82926;SDS011;72788;40.218;44.486;2024-03-23T06:38:37;7.60;;;1.73;;
82926;SDS011;72788;40.218;44.486;2024-03-23T06:41:03;8.48;;;1.98;;
82926;SDS011;72788;40.218;44.486;2024-03-23T06:43:29;5.57;;;1.90;;
82926;SDS011;72788;40.218;44.486;2024-03-23T06:45:55;6.28;;;2.45;;
82926;SDS011;72788;40.218;44.486;2024-03-23T06:48:21;9.35;;;2.30;;
82926;SDS011;72788;40.218;44.486;2024-03-23T06:50:47;7.55;;;2.10;;
82926;SDS011;72788;40.218;44.486;2024-03-23T06:53:13;9.32;;;2.70;;
82926;SDS011;72788;40.218;44.486;2024-03-23T06:55:40;12.23;;;3.00;;
82926;SDS011;72788;40.218;44.486;2024-03-23T06:58:06;8.40;;;2.78;;
82926;SDS011;72788;40.218;44.486;2024-03-23T07:00:32;6.93;;;2.58;;
82926;SDS011;72788;40.218;44.486;2024-03-23T07:02:58;9.35;;;2.15;;
82926;SDS011;72788;40.218;44.486;2024-03-23T07:05:24;8.35;;;2.42;;
82926;SDS011;72788;40.218;44.486;2024-03-23T07:07:50;9.95;;;3.47;;
82926;SDS011;72788;40.218;44.486;2024-03-23T07:10:16;11.65;;;3.13;;
82926;SDS011;72788;40.218;44.486;2024-03-23T07:12:42;9.48;;;3.00;;
82926;SDS011;72788;40.218;44.486;2024-03-23T07:15:08;10.52;;;4.00;;
82926;SDS011;72788;40.218;44.486;2024-03-23T07:17:34;9.13;;;3.30;;
82926;SDS011;72788;40.218;44.486;2024-03-23T07:20:00;14.95;;;3.88;;
82926;SDS011;72788;40.218;44.486;2024-03-23T07:22:29;10.82;;;4.30;;
82926;SDS011;72788;40.218;44.486;2024-03-23T07:24:55;13.50;;;4.28;;
82926;SDS011;72788;40.218;44.486;2024-03-23T07:27:21;10.75;;;5.35;;
82926;SDS011;72788;40.218;44.486;2024-03-23T07:29:49;9.75;;;4.18;;
82926;SDS011;72788;40.218;44.486;2024-03-23T07:32:14;12.20;;;4.07;;
82926;SDS011;72788;40.218;44.486;2024-03-23T07:34:40;9.10;;;3.95;;
82926;SDS011;72788;40.218;44.486;2024-03-23T07:37:08;9.25;;;3.60;;
82926;SDS011;72788;40.218;44.486;2024-03-23T07:39:34;21.60;;;3.45;;
82926;SDS011;72788;40.218;44.486;2024-03-23T07:42:00;10.60;;;3.70;;
82926;SDS011;72788;40.218;44.486;2024-03-23T07:44:25;9.70;;;3.38;;
82926;SDS011;72788;40.218;44.486;2024-03-23T07:46:51;8.55;;;3.97;;
82926;SDS011;72788;40.218;44.486;2024-03-23T07:49:17;9.27;;;3.55;;
82926;SDS011;72788;40.218;44.486;2024-03-23T07:51:43;11.20;;;3.67;;
82926;SDS011;72788;40.218;44.486;2024-03-23T07:54:10;10.88;;;4.65;;
82926;SDS011;72788;40.218;44.486;2024-03-23T07:56:35;13.55;;;3.53;;
82926;SDS011;72788;40.218;44.486;2024-03-23T07:59:01;9.68;;;3.55;;
82926;SDS011;72788;40.218;44.486;2024-03-23T08:01:28;15.77;;;3.08;;
82926;SDS011;72788;40.218;44.486;2024-03-23T08:03:54;11.88;;;3.38;;
82926;SDS011;72788;40.218;44.486;2024-03-23T08:06:20;12.65;;;3.03;;
82926;SDS011;72788;40.218;44.486;2024-03-23T08:08:48;8.70;;;3.15;;
82926;SDS011;72788;40.218;44.486;2024-03-23T08:13:50;11.60;;;3.70;;
82926;SDS011;72788;40.218;44.486;2024-03-23T08:16:16;20.85;;;3.30;;
82926;SDS011;72788;40.218;44.486;2024-03-23T08:18:41;12.40;;;4.00;;
82926;SDS011;72788;40.218;44.486;2024-03-23T08:21:07;9.50;;;3.20;;
82926;SDS011;72788;40.218;44.486;2024-03-23T08:23:33;9.65;;;3.25;;
82926;SDS011;72788;40.218;44.486;2024-03-23T08:26:05;9.18;;;3.58;;
82926;SDS011;72788;40.218;44.486;2024-03-23T08:28:33;12.52;;;3.35;;
82926;SDS011;72788;40.218;44.486;2024-03-23T08:31:03;12.55;;;2.92;;
82926;SDS011;72788;40.218;44.486;2024-03-23T08:33:31;18.70;;;4.07;;
82926;SDS011;72788;40.218;44.486;2024-03-23T08:35:57;11.77;;;3.10;;
82926;SDS011;72788;40.218;44.486;2024-03-23T08:38:25;9.18;;;2.90;;
82926;SDS011;72788;40.218;44.486;2024-03-23T08:41:07;9.10;;;2.45;;
82926;SDS011;72788;40.218;44.486;2024-03-23T08:43:38;8.50;;;3.40;;
82926;SDS011;72788;40.218;44.486;2024-03-23T08:46:12;9.77;;;3.20;;
82926;SDS011;72788;40.218;44.486;2024-03-23T08:48:41;9.20;;;3.17;;
82926;SDS011;72788;40.218;44.486;2024-03-23T08:51:09;9.10;;;2.70;;
82926;SDS011;72788;40.218;44.486;2024-03-23T08:53:36;7.75;;;2.20;;
82926;SDS011;72788;40.218;44.486;2024-03-23T08:56:02;7.95;;;2.53;;
82926;SDS011;72788;40.218;44.486;2024-03-23T08:58:32;9.43;;;2.60;;
82926;SDS011;72788;40.218;44.486;2024-03-23T09:01:08;12.98;;;4.07;;
82926;SDS011;72788;40.218;44.486;2024-03-23T09:03:35;11.77;;;3.25;;
82926;SDS011;72788;40.218;44.486;2024-03-23T09:06:08;10.07;;;3.38;;
82926;SDS011;72788;40.218;44.486;2024-03-23T09:08:35;8.18;;;2.88;;
82926;SDS011;72788;40.218;44.486;2024-03-23T09:11:05;10.88;;;3.30;;
82926;SDS011;72788;40.218;44.486;2024-03-23T09:13:34;8.98;;;3.45;;
82926;SDS011;72788;40.218;44.486;2024-03-23T09:16:01;11.82;;;3.58;;
82926;SDS011;72788;40.218;44.486;2024-03-23T09:18:28;8.63;;;3.08;;
82926;SDS011;72788;40.218;44.486;2024-03-23T09:20:57;11.07;;;3.40;;
82926;SDS011;72788;40.218;44.486;2024-03-23T09:23:22;12.65;;;3.85;;
82926;SDS011;72788;40.218;44.486;2024-03-23T09:25:48;8.32;;;3.33;;
82926;SDS011;72788;40.218;44.486;2024-03-23T09:28:14;10.88;;;3.70;;
82926;SDS011;72788;40.218;44.486;2024-03-23T09:30:40;9.20;;;3.17;;
82926;SDS011;72788;40.218;44.486;2024-03-23T09:33:12;8.50;;;3.85;;
82926;SDS011;72788;40.218;44.486;2024-03-23T09:35:41;12.48;;;4.63;;
82926;SDS011;72788;40.218;44.486;2024-03-23T09:38:08;8.25;;;3.15;;
82926;SDS011;72788;40.218;44.486;2024-03-23T09:40:35;9.32;;;3.78;;
82926;SDS011;72788;40.218;44.486;2024-03-23T09:43:17;10.32;;;3.20;;
82926;SDS011;72788;40.218;44.486;2024-03-23T09:45:43;11.00;;;3.83;;
82926;SDS011;72788;40.218;44.486;2024-03-23T09:48:10;11.88;;;3.30;;
82926;SDS011;72788;40.218;44.486;2024-03-23T09:50:37;8.75;;;3.20;;
82926;SDS011;72788;40.218;44.486;2024-03-23T09:53:04;8.45;;;3.20;;
82926;SDS011;72788;40.218;44.486;2024-03-23T09:55:31;13.10;;;3.15;;
82926;SDS011;72788;40.218;44.486;2024-03-23T09:57:57;7.97;;;3.13;;
82926;SDS011;72788;40.218;44.486;2024-03-23T10:00:23;12.55;;;3.03;;
82926;SDS011;72788;40.218;44.486;2024-03-23T10:02:49;11.73;;;3.90;;
82926;SDS011;72788;40.218;44.486;2024-03-23T10:05:21;11.57;;;4.15;;
82926;SDS011;72788;40.218;44.486;2024-03-23T10:07:52;8.85;;;3.35;;
82926;SDS011;72788;40.218;44.486;2024-03-23T10:10:18;11.13;;;3.47;;
82926;SDS011;72788;40.218;44.486;2024-03-23T10:12:46;8.15;;;3.55;;
82926;SDS011;72788;40.218;44.486;2024-03-23T10:15:19;16.58;;;8.65;;
82926;SDS011;72788;40.218;44.486;2024-03-23T10:17:47;12.25;;;5.07;;
82926;SDS011;72788;40.218;44.486;2024-03-23T10:20:13;12.00;;;3.33;;
82926;SDS011;72788;40.218;44.486;2024-03-23T10:22:45;11.90;;;3.92;;
82926;SDS011;72788;40.218;44.486;2024-03-23T10:25:11;9.15;;;3.70;;
82926;SDS011;72788;40.218;44.486;2024-03-23T10:27:39;18.88;;;4.00;;
82926;SDS011;72788;40.218;44.486;2024-03-23T10:30:12;12.07;;;3.83;;
82926;SDS011;72788;40.218;44.486;2024-03-23T10:32:41;11.57;;;4.15;;
82926;SDS011;72788;40.218;44.486;2024-03-23T10:35:20;14.20;;;3.85;;
82926;SDS011;72788;40.218;44.486;2024-03-23T10:37:48;32.15;;;4.78;;
82926;SDS011;72788;40.218;44.486;2024-03-23T10:40:16;12.50;;;4.72;;
82926;SDS011;72788;40.218;44.486;2024-03-23T10:42:43;38.20;;;5.40;;
82926;SDS011;72788;40.218;44.486;2024-03-23T10:45:10;10.32;;;3.45;;
82926;SDS011;72788;40.218;44.486;2024-03-23T10:47:36;12.85;;;4.03;;
82926;SDS011;72788;40.218;44.486;2024-03-23T10:50:06;11.02;;;3.45;;
82926;SDS011;72788;40.218;44.486;2024-03-23T10:52:35;13.80;;;4.55;;
82926;SDS011;72788;40.218;44.486;2024-03-23T10:55:02;10.30;;;3.72;;
82926;SDS011;72788;40.218;44.486;2024-03-23T10:57:34;11.45;;;3.40;;
82926;SDS011;72788;40.218;44.486;2024-03-23T11:00:09;10.50;;;3.72;;
82926;SDS011;72788;40.218;44.486;2024-03-23T11:02:36;10.75;;;4.07;;
82926;SDS011;72788;40.218;44.486;2024-03-23T11:05:02;9.63;;;2.97;;
82926;SDS011;72788;40.218;44.486;2024-03-23T11:07:50;12.93;;;3.28;;
82926;SDS011;72788;40.218;44.486;2024-03-23T11:10:26;6.93;;;3.03;;
82926;SDS011;72788;40.218;44.486;2024-03-23T11:12:58;7.47;;;2.92;;
82926;SDS011;72788;40.218;44.486;2024-03-23T11:15:43;12.73;;;4.95;;
82926;SDS011;72788;40.218;44.486;2024-03-23T11:18:09;9.43;;;3.03;;
82926;SDS011;72788;40.218;44.486;2024-03-23T11:20:36;8.43;;;3.67;;
82926;SDS011;72788;40.218;44.486;2024-03-23T11:23:02;8.77;;;4.22;;
82926;SDS011;72788;40.218;44.486;2024-03-23T11:25:28;7.93;;;3.17;;
82926;SDS011;72788;40.218;44.486;2024-03-23T11:28:06;7.22;;;3.20;;
82926;SDS011;72788;40.218;44.486;2024-03-23T11:30:36;7.90;;;2.92;;
82926;SDS011;72788;40.218;44.486;2024-03-23T11:33:05;8.20;;;3.42;;
82926;SDS011;72788;40.218;44.486;2024-03-23T11:35:32;9.50;;;3.67;;
82926;SDS011;72788;40.218;44.486;2024-03-23T11:38:02;8.80;;;3.95;;
82926;SDS011;72788;40.218;44.486;2024-03-23T11:40:39;9.95;;;3.92;;
82926;SDS011;72788;40.218;44.486;2024-03-23T11:43:08;10.27;;;4.10;;
82926;SDS011;72788;40.218;44.486;2024-03-23T11:48:17;9.93;;;4.93;;
82926;SDS011;72788;40.218;44.486;2024-03-23T11:50:47;10.77;;;4.05;;
82926;SDS011;72788;40.218;44.486;2024-03-23T11:53:15;8.05;;;3.60;;
82926;SDS011;72788;40.218;44.486;2024-03-23T11:55:43;9.25;;;4.53;;
82926;SDS011;72788;40.218;44.486;2024-03-23T11:58:12;13.73;;;5.03;;
82926;SDS011;72788;40.218;44.486;2024-03-23T12:00:38;11.65;;;6.32;;
82926;SDS011;72788;40.218;44.486;2024-03-23T12:03:05;12.07;;;5.97;;
82926;SDS011;72788;40.218;44.486;2024-03-23T12:05:31;10.38;;;5.22;;
82926;SDS011;72788;40.218;44.486;2024-03-23T12:10:52;10.63;;;5.28;;
82926;SDS011;72788;40.218;44.486;2024-03-23T12:13:29;14.20;;;5.32;;
82926;SDS011;72788;40.218;44.486;2024-03-23T12:15:55;12.80;;;5.78;;
82926;SDS011;72788;40.218;44.486;2024-03-23T12:18:37;23.00;;;10.85;;
82926;SDS011;72788;40.218;44.486;2024-03-23T12:21:05;15.63;;;7.25;;
82926;SDS011;72788;40.218;44.486;2024-03-23T12:23:31;12.68;;;6.35;;
82926;SDS011;72788;40.218;44.486;2024-03-23T12:25:57;24.95;;;6.53;;
82926;SDS011;72788;40.218;44.486;2024-03-23T12:28:23;9.07;;;4.95;;
82926;SDS011;72788;40.218;44.486;2024-03-23T12:30:50;9.02;;;4.45;;
82926;SDS011;72788;40.218;44.486;2024-03-23T12:34:00;14.63;;;5.32;;
82926;SDS011;72788;40.218;44.486;2024-03-23T12:36:28;12.27;;;6.70;;
82926;SDS011;72788;40.218;44.486;2024-03-23T12:38:53;9.55;;;4.57;;
82926;SDS011;72788;40.218;44.486;2024-03-23T12:41:19;12.85;;;5.90;;
82926;SDS011;72788;40.218;44.486;2024-03-23T12:43:45;10.60;;;5.43;;
82926;SDS011;72788;40.218;44.486;2024-03-23T12:46:13;10.25;;;5.00;;
82926;SDS011;72788;40.218;44.486;2024-03-23T12:48:39;10.65;;;5.28;;
82926;SDS011;72788;40.218;44.486;2024-03-23T12:51:05;10.27;;;4.88;;
82926;SDS011;72788;40.218;44.486;2024-03-23T12:53:30;9.15;;;4.70;;
82926;SDS011;72788;40.218;44.486;2024-03-23T12:55:56;12.50;;;5.03;;
82926;SDS011;72788;40.218;44.486;2024-03-23T12:58:22;12.73;;;5.80;;
82926;SDS011;72788;40.218;44.486;2024-03-23T13:00:48;11.02;;;5.70;;
82926;SDS011;72788;40.218;44.486;2024-03-23T13:03:13;11.70;;;4.97;;
82926;SDS011;72788;40.218;44.486;2024-03-23T13:05:40;12.90;;;6.20;;
82926;SDS011;72788;40.218;44.486;2024-03-23T13:08:08;12.23;;;5.22;;
82926;SDS011;72788;40.218;44.486;2024-03-23T13:10:34;9.65;;;4.75;;
82926;SDS011;72788;40.218;44.486;2024-03-23T13:13:00;12.82;;;5.93;;
82926;SDS011;72788;40.218;44.486;2024-03-23T13:15:25;9.95;;;4.50;;
82926;SDS011;72788;40.218;44.486;2024-03-23T13:17:51;11.05;;;5.30;;
82926;SDS011;72788;40.218;44.486;2024-03-23T13:20:19;11.43;;;5.30;;
82926;SDS011;72788;40.218;44.486;2024-03-23T13:22:45;10.40;;;5.43;;
82926;SDS011;72788;40.218;44.486;2024-03-23T13:25:12;11.43;;;5.28;;
82926;SDS011;72788;40.218;44.486;2024-03-23T13:27:38;13.60;;;5.30;;
82926;SDS011;72788;40.218;44.486;2024-03-23T13:30:04;9.63;;;4.05;;
82926;SDS011;72788;40.218;44.486;2024-03-23T13:32:30;7.35;;;3.28;;
82926;SDS011;72788;40.218;44.486;2024-03-23T13:34:56;9.43;;;3.92;;
82926;SDS011;72788;40.218;44.486;2024-03-23T13:37:22;9.18;;;3.33;;
82926;SDS011;72788;40.218;44.486;2024-03-23T13:39:47;12.05;;;4.45;;
82926;SDS011;72788;40.218;44.486;2024-03-23T13:42:13;8.98;;;4.15;;
82926;SDS011;72788;40.218;44.486;2024-03-23T13:44:41;8.30;;;3.85;;
82926;SDS011;72788;40.218;44.486;2024-03-23T13:47:06;8.57;;;3.80;;
82926;SDS011;72788;40.218;44.486;2024-03-23T13:49:33;7.40;;;3.28;;
82926;SDS011;72788;40.218;44.486;2024-03-23T13:51:59;10.82;;;4.25;;
82926;SDS011;72788;40.218;44.486;2024-03-23T13:54:25;9.85;;;3.95;;
82926;SDS011;72788;40.218;44.486;2024-03-23T13:56:51;8.90;;;4.05;;
82926;SDS011;72788;40.218;44.486;2024-03-23T13:59:17;9.20;;;3.75;;
82926;SDS011;72788;40.218;44.486;2024-03-23T14:01:44;8.00;;;3.28;;
82926;SDS011;72788;40.218;44.486;2024-03-23T14:04:11;10.27;;;4.18;;
82926;SDS011;72788;40.218;44.486;2024-03-23T14:06:37;9.60;;;2.30;;
82926;SDS011;72788;40.218;44.486;2024-03-23T14:09:03;6.63;;;2.47;;
82926;SDS011;72788;40.218;44.486;2024-03-23T14:11:29;6.75;;;2.60;;
82926;SDS011;72788;40.218;44.486;2024-03-23T14:13:55;7.35;;;2.88;;
82926;SDS011;72788;40.218;44.486;2024-03-23T14:16:20;7.30;;;2.80;;
82926;SDS011;72788;40.218;44.486;2024-03-23T14:18:47;7.90;;;2.75;;
82926;SDS011;72788;40.218;44.486;2024-03-23T14:21:16;7.03;;;2.65;;
82926;SDS011;72788;40.218;44.486;2024-03-23T14:23:42;6.55;;;2.30;;
82926;SDS011;72788;40.218;44.486;2024-03-23T14:26:07;6.53;;;2.65;;
82926;SDS011;72788;40.218;44.486;2024-03-23T14:28:34;6.68;;;2.53;;
82926;SDS011;72788;40.218;44.486;2024-03-23T14:31:00;7.60;;;2.88;;
82926;SDS011;72788;40.218;44.486;2024-03-23T14:33:26;6.78;;;2.80;;
82926;SDS011;72788;40.218;44.486;2024-03-23T14:35:55;8.90;;;3.60;;
82926;SDS011;72788;40.218;44.486;2024-03-23T14:38:25;8.02;;;3.17;;
82926;SDS011;72788;40.218;44.486;2024-03-23T14:40:50;9.82;;;3.63;;
82926;SDS011;72788;40.218;44.486;2024-03-23T14:43:18;7.57;;;3.45;;
82926;SDS011;72788;40.218;44.486;2024-03-23T14:46:26;7.43;;;3.53;;
82926;SDS011;72788;40.218;44.486;2024-03-23T14:48:40;8.30;;;3.63;;
82926;SDS011;72788;40.218;44.486;2024-03-23T14:51:06;6.35;;;2.20;;
82926;SDS011;72788;40.218;44.486;2024-03-23T14:53:33;7.47;;;2.42;;
82926;SDS011;72788;40.218;44.486;2024-03-23T14:56:10;5.50;;;1.98;;
82926;SDS011;72788;40.218;44.486;2024-03-23T14:58:38;7.55;;;3.08;;
82926;SDS011;72788;40.218;44.486;2024-03-23T15:01:04;7.53;;;2.67;;
82926;SDS011;72788;40.218;44.486;2024-03-23T15:03:34;6.55;;;2.70;;
82926;SDS011;72788;40.218;44.486;2024-03-23T15:06:01;7.70;;;3.10;;
82926;SDS011;72788;40.218;44.486;2024-03-23T15:08:27;8.23;;;2.95;;
82926;SDS011;72788;40.218;44.486;2024-03-23T15:10:59;8.50;;;3.00;;
82926;SDS011;72788;40.218;44.486;2024-03-23T15:13:25;7.97;;;3.10;;
82926;SDS011;72788;40.218;44.486;2024-03-23T15:15:51;8.32;;;2.97;;
82926;SDS011;72788;40.218;44.486;2024-03-23T15:18:17;6.82;;;3.28;;
82926;SDS011;72788;40.218;44.486;2024-03-23T15:20:55;7.53;;;3.15;;
82926;SDS011;72788;40.218;44.486;2024-03-23T15:23:21;6.95;;;2.85;;
82926;SDS011;72788;40.218;44.486;2024-03-23T15:25:57;6.63;;;2.90;;
82926;SDS011;72788;40.218;44.486;2024-03-23T15:28:27;7.47;;;3.13;;
82926;SDS011;72788;40.218;44.486;2024-03-23T15:31:12;6.18;;;2.28;;
82926;SDS011;72788;40.218;44.486;2024-03-23T15:33:38;7.10;;;2.53;;